Hawaii METAR Reports

 

PHOG - Kahului, Hawaii, USA
Distance from station: WNW 8mi, 13km
Updated: Thu, 09-Apr-2020 4:54pm HST
Partly Cloudy
Partly Cloudy
 Wind from N
Wind: N 12 mph , 19 km/h
Temperature: 81°F , 27°C
Heat Index: 84°F , 29°C
Dew Point: 68°F , 20°C
Humidity: 66%
Barometer: 29.93 inHg , 1013.5 hPa
Clouds: Partly Cloudy
Visibility: 10 miles , 16 km
Cloud details: Partly Cloudy 4000 ft
2020/04/10 02:54 PHOG 100254Z 01010KT 10SM SCT040 27/20 A2993 RMK AO2 SLP140 T02670200 55008
PHJH - Lahaina/West Mau, Hawaii, USA
Distance from station: WNW 24mi, 39km
Updated: Thu, 09-Apr-2020 4:45pm HST
Few Clouds
Few Clouds
 Wind from W
Wind: W 9 mph , 15 km/h
Temperature: 81°F , 27°C
Heat Index: 83°F , 28°C
Dew Point: 64°F , 18°C
Humidity: 58%
Barometer: 29.94 inHg , 1013.9 hPa
Clouds: Few Clouds
Visibility: 15 miles , 24 km
Cloud details: Few Clouds 2500 ft
2020/04/10 02:45 PHJH 100245Z 26008KT 15SM FEW025 27/18 A2994
 
PHNY - Lanai City Airpo, Hawaii, USA
Distance from station: W 40mi, 65km
Updated: Thu, 09-Apr-2020 4:56pm HST
Clear
Clear
 Wind from WNW
Wind: WNW 8 mph , 13 km/h
Temperature: 73°F , 23°C
Dew Point: 64°F , 18°C
Humidity: 74%
Barometer: 30.00 inHg , 1015.9 hPa
Clouds: Clear
Visibility: 10 miles , 16 km
2020/04/10 02:56 PHNY 100256Z AUTO 29007KT 10SM CLR 23/18 A3000 RMK AO2 SLP138 T02330178 55009
PHMK - Molokai, Hawaii, USA
Distance from station: WNW 55mi, 88km
Updated: Thu, 09-Apr-2020 4:54pm HST
Few Clouds
Few Clouds
 Wind from W
Wind: W 3 mph , 6 km/h
Temperature: 79°F , 26°C
Dew Point: 64°F , 18°C
Humidity: 61%
Barometer: 29.95 inHg , 1014.2 hPa
Clouds: Few Clouds
Visibility: 10 miles , 16 km
Cloud details: Few Clouds 4000 ft
2020/04/10 02:54 PHMK 100254Z 26003KT 10SM FEW040 26/18 A2995 RMK AO2 SLP143 T02560178 55008
 
PHKO - Kailua/Kona, Hawaii, USA
Distance from station: SSE 79mi, 128km
Updated: Thu, 09-Apr-2020 4:53pm HST
Clear
Clear
 Wind from NW
Wind: NW 7 mph , 11 km/h
Temperature: 81°F , 27°C
Heat Index: 83°F , 28°C
Dew Point: 66°F , 19°C
Humidity: 62%
Barometer: 29.93 inHg , 1013.5 hPa
Clouds: Clear
Visibility: 10 miles , 16 km
2020/04/10 02:53 PHKO 100253Z 32006KT 10SM CLR 27/19 A2993 RMK AO2 SLP134 T02720194 $
PHSF - Bradshaw Aaf/Haw, Hawaii, USA
Distance from station: SE 90mi, 145km
Updated: Thu, 09-Apr-2020 4:58pm HST
Clear
Clear
 Wind from W
Wind: W 5 mph , 7 km/h
Temperature: 64°F , 18°C
Dew Point: 52°F , 11°C
Humidity: 64%
Barometer: 30.24 inHg , 1024 hPa
Clouds: Clear
Visibility: 9 miles , 14 km
2020/04/10 02:58 PHSF 100258Z AUTO 27004KT 9SM CLR 18/11 A3024 RMK AO2 SLP130 T01760106 58005 $
 
PHNG - Kaneohe Mcas, Hawaii, USA
Distance from station: WNW 102mi, 164km
Updated: Thu, 09-Apr-2020 4:57pm HST
Light rain, Overcast
Light rain, Overcast
 Wind from N
Wind: N 9 mph , 15 km/h
Temperature: 75°F , 24°C
Dew Point: 66°F , 19°C
Humidity: 74%
Barometer: 29.91 inHg , 1012.9 hPa
Summary: Light Rain
Clouds: Overcast
Visibility: 9 miles , 14 km
Cloud details: Partly Cloudy 2700 ft
Mostly Cloudy 3200 ft
Overcast 5500 ft
2020/04/10 02:57 PHNG 100257Z 36008KT 9SM -RA SCT027 BKN032 OVC055 24/19 A2991 RMK AO2 RAB52E54B55 SLP125 P0000 60000 T02390189 51002 $
PHNL - Honolulu, Hawaii, USA
Distance from station: WNW 108mi, 174km
Updated: Thu, 09-Apr-2020 4:53pm HST
Few Clouds
Few Clouds
 Wind from SW
Wind: SW 15 mph , 24 km/h
Temperature: 79°F , 26°C
Dew Point: 64°F , 18°C
Humidity: 61%
Barometer: 29.93 inHg , 1013.5 hPa
Clouds: Few Clouds
Visibility: 10 miles , 16 km
Cloud details: Few Clouds 2400 ft
Few Clouds 3800 ft
2020/04/10 02:53 PHNL 100253Z 23013KT 10SM FEW024 FEW038 26/18 A2993 RMK AO2 SLP133 T02610178 56007
 
PHTO - Hilo, Hawaii, USA
Distance from station: SE 114mi, 183km
Updated: Thu, 09-Apr-2020 4:53pm HST
Overcast
Overcast
 Wind from N
Wind: N 6 mph , 9 km/h
Temperature: 77°F , 25°C
Dew Point: 66°F , 19°C
Humidity: 69%
Barometer: 29.94 inHg , 1013.9 hPa
Clouds: Overcast
Visibility: 10 miles , 16 km
Cloud details: Overcast 6000 ft
2020/04/10 02:53 PHTO 100253Z 01005KT 10SM OVC060 25/19 A2994 RMK AO2 SLP136 T02500194 55002
PHJR - Kalaeloa, Hawaii, USA
Distance from station: WNW 117mi, 189km
Updated: Thu, 09-Apr-2020 1:53pm HST
NOT Current
Clear
Clear
 Wind from W
Wind: W 10 mph , 17 km/h
Temperature: 82°F , 28°C
Heat Index: 84°F , 29°C
Dew Point: 64°F , 18°C
Humidity: 55%
Barometer: 29.96 inHg , 1014.6 hPa
Clouds: Clear
Visibility: 10 miles , 16 km
2020/04/09 23:53 PHJR 092353Z 27009KT 10SM CLR 28/18 A2996 RMK AO2 SLP152 6//// T02780183 10283 20217 58020
 
PHHI - Wheeler Afb/Oahu, Hawaii, USA
Distance from station: WNW 120mi, 193km
Updated: Thu, 09-Apr-2020 4:56pm HST
Few Clouds
Few Clouds
 Wind from NW
Wind: NW 9 mph , 15 km/h
Temperature: 75°F , 24°C
Dew Point: 64°F , 18°C
Humidity: 69%
Barometer: 29.93 inHg , 1013.5 hPa
Clouds: Few Clouds
Visibility: 10 miles , 16 km
Cloud details: Few Clouds 3600 ft
2020/04/10 02:56 PHHI 100256Z AUTO 31008KT 10SM FEW036 24/18 A2993 RMK AO2 SLP128 T02410183 55006 $
PHLI - Lihue/Kauai Is, Hawaii, USA
Distance from station: WNW 209mi, 336km
Updated: Thu, 09-Apr-2020 4:53pm HST
Overcast
Overcast
 Wind from NNE
Wind: NNE 8 mph , 13 km/h
Temperature: 73°F , 23°C
Dew Point: 64°F , 18°C
Humidity: 74%
Barometer: 29.96 inHg , 1014.6 hPa
Clouds: Overcast
Visibility: 10 miles , 16 km
Cloud details: Mostly Cloudy 2600 ft
Overcast 3400 ft
2020/04/10 02:53 PHLI 100253Z 02007KT 10SM BKN026 OVC034 23/18 A2996 RMK AO2 SLP142 T02330183 55006
 
PHBK - Barking Sands/Ka, Hawaii, USA
Distance from station: WNW 237mi, 382km
Updated: Thu, 09-Apr-2020 4:56pm HST
Clear
Clear
 Wind from NNW
Wind: NNW 12 mph , 19 km/h
Temperature: 79°F , 26°C
Dew Point: 63°F , 17°C
Humidity: 58%
Barometer: 29.94 inHg , 1013.9 hPa
Clouds: Clear
Visibility: 10 miles , 16 km
2020/04/10 02:56 PHBK 100256Z AUTO 34010KT 10SM CLR 26/17 A2994 RMK AO2 SLP140 T02560172 55006